Time;durP1;ratioP1;P1;durP2;ratioP2;P2;SDS_P1;SDS_P2;PMS_P1;PMS_P2;Temp;Humidity;BMP_temperature;BMP_pressure;BME280_temperature;BME280_humidity;BME280_pressure;Samples;Min_cycle;Max_cycle;Signal;HPM_P1;HPM_P2
2022/06/04 00:00:13;;;;;;;8.10;4.88;;;17.90;99.90;;;;;;4228706;27;20595;-61
2022/06/04 00:02:15;;;;;;;5.57;4.93;;;17.90;99.90;;;;;;4232151;27;20023;-62
2022/06/04 00:04:16;;;;;;;8.05;4.95;;;17.90;99.90;;;;;;4231009;27;20035;-62
2022/06/04 00:06:17;;;;;;;5.32;4.40;;;17.90;99.90;;;;;;4229703;27;20069;-63
2022/06/04 00:08:19;;;;;;;6.70;4.88;;;17.90;99.90;;;;;;4225116;27;20139;-62
2022/06/04 00:17:26;;;;;;;12.07;5.50;;;17.70;99.90;;;;;;4240185;27;20490;-62
2022/06/04 00:19:27;;;;;;;6.88;5.03;;;17.60;99.90;;;;;;4241477;27;20100;-62
2022/06/04 00:21:28;;;;;;;7.07;5.25;;;17.60;99.90;;;;;;4226419;27;20104;-62
2022/06/04 00:23:29;;;;;;;7.97;5.13;;;17.50;99.90;;;;;;4228655;27;20023;-64
2022/06/04 00:25:33;;;;;;;8.10;5.80;;;17.50;99.90;;;;;;4233339;27;20088;-62
2022/06/04 00:27:34;;;;;;;8.02;6.95;;;17.40;99.90;;;;;;4231318;27;20436;-62
2022/06/04 00:29:37;;;;;;;13.18;7.20;;;17.30;99.90;;;;;;4233074;27;20039;-62
2022/06/04 00:31:38;;;;;;;14.32;7.43;;;17.30;99.90;;;;;;4230463;27;20039;-62
2022/06/04 00:33:40;;;;;;;13.10;7.45;;;17.20;99.90;;;;;;4231837;27;20031;-62
2022/06/04 00:35:41;;;;;;;12.73;7.47;;;17.20;99.90;;;;;;4227818;27;20889;-62
2022/06/04 00:37:42;;;;;;;12.15;6.88;;;17.20;99.90;;;;;;4224045;27;20023;-63
2022/06/04 00:39:45;;;;;;;12.50;7.07;;;17.10;99.90;;;;;;4229904;27;20495;-61
2022/06/04 00:41:55;;;;;;;17.45;7.28;;;17.10;99.90;;;;;;4225812;28;20459;-61
2022/06/04 00:44:13;;;;;;;9.48;6.82;;;17.10;99.90;;;;;;4225955;27;20028;-63
2022/06/04 00:46:23;;;;;;;11.70;7.82;;;17.10;99.90;;;;;;4234173;27;20428;-62
2022/06/04 00:48:24;;;;;;;13.15;7.13;;;17.20;99.90;;;;;;4242967;27;20096;-63
2022/06/04 00:50:29;;;;;;;16.25;7.20;;;17.20;99.90;;;;;;4242508;27;20444;-62
2022/06/04 00:52:30;;;;;;;17.40;7.55;;;17.20;99.90;;;;;;4243463;27;20023;-62
2022/06/04 00:54:31;;;;;;;13.38;7.60;;;17.20;99.90;;;;;;4240503;27;20027;-62
2022/06/04 00:56:39;;;;;;;21.05;7.95;;;17.10;99.90;;;;;;4241860;27;20111;-62
2022/06/04 00:59:01;;;;;;;10.85;6.88;;;17.10;99.90;;;;;;4240782;27;20031;-64
2022/06/04 01:01:32;;;;;;;14.77;6.50;;;17.10;99.90;;;;;;4229343;27;20027;-63
2022/06/04 01:03:34;;;;;;;11.93;6.32;;;17.10;99.90;;;;;;4240461;27;20128;-64
2022/06/04 01:06:06;;;;;;;10.65;6.70;;;17.20;99.90;;;;;;4231044;27;20089;-63
2022/06/04 01:08:10;;;;;;;12.50;6.38;;;17.20;99.90;;;;;;4225659;27;20043;-62
2022/06/04 01:10:29;;;;;;;10.35;6.05;;;17.10;99.90;;;;;;4226800;27;20047;-62
2022/06/04 01:12:49;;;;;;;9.95;5.60;;;17.10;99.90;;;;;;4225450;27;20027;-64
2022/06/04 01:14:54;;;;;;;7.80;6.00;;;17.10;99.90;;;;;;4227528;27;20047;-62
2022/06/04 01:17:45;;;;;;;9.52;5.82;;;17.10;99.90;;;;;;4224629;28;20459;-63
2022/06/04 01:19:46;;;;;;;8.68;5.57;;;17.10;99.90;;;;;;4208161;27;20093;-63
2022/06/04 01:22:05;;;;;;;9.73;5.90;;;17.10;99.90;;;;;;4233296;27;20023;-62
2022/06/04 01:24:25;;;;;;;10.23;6.05;;;17.20;99.90;;;;;;4226155;27;20032;-62
2022/06/04 01:26:51;;;;;;;12.23;5.40;;;17.20;99.90;;;;;;4227824;27;20023;-62
2022/06/04 01:29:06;;;;;;;12.85;5.60;;;17.10;99.90;;;;;;4226590;27;20101;-64
2022/06/04 01:31:09;;;;;;;8.18;5.45;;;17.10;99.90;;;;;;4238250;27;20043;-63
2022/06/04 01:33:18;;;;;;;10.50;5.95;;;17.00;99.90;;;;;;4240644;27;20073;-62
2022/06/04 01:35:23;;;;;;;12.30;5.03;;;17.00;99.90;;;;;;4241091;27;20375;-62
2022/06/04 01:37:47;;;;;;;9.10;6.18;;;16.90;99.90;;;;;;4242460;27;20087;-62
2022/06/04 01:42:12;;;;;;;9.30;5.53;;;16.90;99.90;;;;;;4225913;27;20028;-62
2022/06/04 01:44:39;;;;;;;11.35;5.82;;;16.80;99.90;;;;;;4239970;27;20050;-62
2022/06/04 01:46:42;;;;;;;13.65;5.60;;;16.70;99.90;;;;;;4240042;27;20562;-62
2022/06/04 01:48:47;;;;;;;11.10;5.30;;;16.70;99.90;;;;;;4240746;27;20498;-62
2022/06/04 01:50:53;;;;;;;9.73;5.47;;;16.70;99.90;;;;;;4226967;27;20077;-63
2022/06/04 01:52:57;;;;;;;8.13;5.50;;;16.60;99.90;;;;;;4225216;27;20086;-62
2022/06/04 01:55:12;;;;;;;14.80;5.45;;;16.60;99.90;;;;;;4224912;28;20108;-62
2022/06/04 01:57:22;;;;;;;8.02;5.80;;;16.60;99.90;;;;;;4240623;27;20104;-62
2022/06/04 01:59:48;;;;;;;10.38;5.43;;;16.60;99.90;;;;;;4241733;27;20035;-62
2022/06/04 02:01:52;;;;;;;15.05;6.22;;;16.60;99.90;;;;;;4233841;27;20063;-62
2022/06/04 02:04:03;;;;;;;9.45;5.43;;;16.60;99.90;;;;;;4225501;27;20093;-62
2022/06/04 02:06:04;;;;;;;;;;;16.50;99.90;;;;;;4225314;28;20031;-61
2022/06/04 02:08:08;;;;;;;10.40;5.40;;;16.50;99.90;;;;;;4225755;27;19911;-63
2022/06/04 02:10:15;;;;;;;13.38;7.13;;;16.50;99.90;;;;;;4225111;27;20056;-62
2022/06/04 02:12:16;;;;;;;7.57;5.80;;;16.50;99.90;;;;;;4231212;27;20081;-61
2022/06/04 02:14:18;;;;;;;11.23;6.35;;;16.50;99.90;;;;;;4224053;28;20120;-63
2022/06/04 02:16:32;;;;;;;10.77;5.80;;;16.50;99.90;;;;;;4225007;28;20040;-61
2022/06/04 02:18:34;;;;;;;12.68;6.22;;;16.50;99.90;;;;;;4223809;28;20434;-63
2022/06/04 02:20:35;;;;;;;14.85;6.03;;;16.50;99.90;;;;;;4226191;27;20031;-62
2022/06/04 02:22:37;;;;;;;6.85;5.45;;;16.50;99.90;;;;;;4224294;27;20073;-62
2022/06/04 02:24:39;;;;;;;8.43;5.28;;;16.60;99.90;;;;;;4238561;27;20052;-62
2022/06/04 02:26:42;;;;;;;10.80;5.00;;;16.60;99.90;;;;;;4238868;27;20547;-62
2022/06/04 02:28:44;;;;;;;6.68;4.68;;;16.50;99.90;;;;;;4232776;27;20032;-61
2022/06/04 02:31:06;;;;;;;8.40;6.10;;;16.50;99.90;;;;;;4223586;28;20104;-62
2022/06/04 02:33:27;;;;;;;8.55;5.05;;;16.40;99.90;;;;;;4230596;27;20099;-64
2022/06/04 02:35:55;;;;;;;8.30;5.68;;;16.30;99.90;;;;;;4240331;27;20105;-62
2022/06/04 02:38:24;;;;;;;6.43;4.88;;;16.30;99.90;;;;;;4241403;27;20769;-63
2022/06/04 02:40:36;;;;;;;8.95;5.82;;;16.30;99.90;;;;;;4239111;27;20103;-62
2022/06/04 02:42:52;;;;;;;6.75;5.35;;;16.20;99.90;;;;;;4240513;27;20072;-61
2022/06/04 02:45:09;;;;;;;9.43;5.95;;;16.20;99.90;;;;;;4241168;27;20027;-62
2022/06/04 02:47:23;;;;;;;6.88;5.80;;;16.20;99.90;;;;;;4221221;27;20111;-63
2022/06/04 02:49:36;;;;;;;12.40;6.85;;;16.20;99.90;;;;;;4229564;27;20035;-63
2022/06/04 02:51:46;;;;;;;12.02;6.22;;;16.30;99.90;;;;;;4240221;27;20047;-62
2022/06/04 02:53:49;;;;;;;9.95;5.60;;;16.30;99.90;;;;;;4231034;27;21034;-62
2022/06/04 02:56:25;;;;;;;9.95;6.15;;;16.20;99.90;;;;;;4223841;28;20028;-63
2022/06/04 02:58:28;;;;;;;8.45;5.60;;;16.30;99.90;;;;;;4196464;28;20040;-62
2022/06/04 03:00:29;;;;;;;8.93;5.43;;;16.30;99.90;;;;;;4222475;28;20035;-61
2022/06/04 03:02:33;;;;;;;10.93;5.72;;;16.30;99.90;;;;;;4225041;28;20032;-63
2022/06/04 03:04:51;;;;;;;6.88;5.97;;;16.50;99.90;;;;;;4236705;27;20095;-62
2022/06/04 03:06:52;;;;;;;11.02;6.30;;;16.50;99.90;;;;;;4207428;28;20032;-62
2022/06/04 03:08:54;;;;;;;14.15;6.10;;;16.60;99.90;;;;;;4231776;27;20030;-62
2022/06/04 03:10:55;;;;;;;8.60;5.95;;;16.70;99.90;;;;;;4238383;27;20562;-63
2022/06/04 03:12:57;;;;;;;9.95;6.20;;;16.80;99.90;;;;;;4238638;27;20108;-62
2022/06/04 03:14:58;;;;;;;10.38;6.22;;;17.00;99.90;;;;;;4232308;27;20027;-61
2022/06/04 03:17:00;;;;;;;11.25;6.43;;;17.10;99.90;;;;;;4224031;28;20035;-62
2022/06/04 03:19:01;;;;;;;8.20;5.80;;;17.30;99.90;;;;;;4222954;28;20076;-62
2022/06/04 03:21:02;;;;;;;7.07;5.68;;;17.60;99.90;;;;;;4225768;27;20031;-62
2022/06/04 03:23:03;;;;;;;7.88;5.40;;;17.80;99.90;;;;;;4238291;27;20027;-62
2022/06/04 03:25:05;;;;;;;7.35;5.68;;;18.20;99.90;;;;;;4226529;27;20088;-63
2022/06/04 03:27:06;;;;;;;8.65;6.00;;;18.50;99.90;;;;;;4228101;27;20772;-63
2022/06/04 03:29:08;;;;;;;9.65;6.53;;;18.80;99.90;;;;;;4239751;27;20467;-63
2022/06/04 03:31:09;;;;;;;11.25;5.07;;;19.00;99.90;;;;;;4239556;27;20092;-62
2022/06/04 03:33:10;;;;;;;9.07;5.60;;;18.90;99.90;;;;;;4240328;27;20096;-62
2022/06/04 03:35:14;;;;;;;11.32;5.60;;;18.70;99.90;;;;;;4238646;27;20511;-62
2022/06/04 03:37:15;;;;;;;9.70;6.55;;;18.70;99.90;;;;;;4233502;27;20040;-62
2022/06/04 03:39:16;;;;;;;15.18;7.53;;;18.60;99.90;;;;;;4223849;28;20061;-63
2022/06/04 03:41:17;;;;;;;10.85;6.25;;;18.40;99.90;;;;;;4230105;28;20238;-62
2022/06/04 03:43:19;;;;;;;10.20;5.95;;;18.30;99.90;;;;;;4238328;28;20472;-63
2022/06/04 03:45:20;;;;;;;9.77;6.05;;;18.20;99.90;;;;;;4237501;27;20039;-62
2022/06/04 03:47:21;;;;;;;9.10;6.32;;;18.10;99.90;;;;;;4237002;27;20039;-62
2022/06/04 03:49:23;;;;;;;7.60;6.30;;;18.00;99.90;;;;;;4222422;28;20092;-61
2022/06/04 03:51:27;;;;;;;12.88;7.53;;;17.90;99.90;;;;;;4232174;28;20080;-63
2022/06/04 03:53:28;;;;;;;12.13;7.60;;;18.00;99.90;;;;;;4239465;27;20095;-62
2022/06/04 03:55:29;;;;;;;11.65;7.00;;;18.00;99.90;;;;;;4238484;28;20047;-63
2022/06/04 03:57:48;;;;;;;24.20;7.50;;;18.20;99.90;;;;;;4238326;27;20092;-63
2022/06/04 03:59:51;;;;;;;14.77;8.02;;;18.50;99.90;;;;;;4224016;28;20088;-62
2022/06/04 04:01:53;;;;;;;12.40;8.70;;;18.70;99.90;;;;;;4222685;28;20031;-63
2022/06/04 04:03:55;;;;;;;10.15;7.07;;;18.80;99.90;;;;;;4223511;28;20024;-63
2022/06/04 04:05:57;;;;;;;20.77;7.93;;;18.90;99.90;;;;;;4225535;28;20040;-62
2022/06/04 04:07:59;;;;;;;14.40;7.60;;;18.80;99.90;;;;;;4240906;28;20084;-62
2022/06/04 04:10:00;;;;;;;9.13;7.00;;;19.00;99.90;;;;;;4238768;27;20103;-62
2022/06/04 04:12:02;;;;;;;12.57;6.63;;;19.00;99.90;;;;;;4238725;28;20087;-62
2022/06/04 04:14:03;;;;;;;13.95;6.85;;;19.00;99.90;;;;;;4238695;27;20096;-62
2022/06/04 04:16:06;;;;;;;13.23;7.65;;;18.90;99.90;;;;;;4237116;28;20108;-62
2022/06/04 04:18:08;;;;;;;11.05;7.82;;;18.60;99.90;;;;;;4237561;28;20027;-62
2022/06/04 04:20:15;;;;;;;14.45;8.30;;;18.40;99.90;;;;;;4233565;27;20094;-62
2022/06/04 04:22:17;;;;;;;13.18;8.02;;;18.20;99.90;;;;;;4224124;28;20027;-62
2022/06/04 04:24:19;;;;;;;10.65;7.97;;;18.10;99.90;;;;;;4233676;28;20406;-62
2022/06/04 04:26:20;;;;;;;13.07;8.27;;;18.10;99.90;;;;;;4222960;28;20081;-62
2022/06/04 04:28:22;;;;;;;12.07;8.50;;;18.10;99.90;;;;;;4222468;28;20027;-63
2022/06/04 04:30:26;;;;;;;13.60;8.75;;;18.00;99.90;;;;;;4223109;28;20473;-63
2022/06/04 04:32:28;;;;;;;21.65;9.98;;;18.00;99.90;;;;;;4221897;28;20040;-62
2022/06/04 04:34:29;;;;;;;15.10;9.27;;;17.90;99.90;;;;;;4223695;28;20031;-63
2022/06/04 04:36:31;;;;;;;11.90;8.57;;;17.80;99.90;;;;;;4234923;28;20039;-61
2022/06/04 04:38:32;;;;;;;15.80;8.88;;;17.80;99.90;;;;;;4240241;27;20065;-62
2022/06/04 04:40:34;;;;;;;13.68;8.52;;;17.80;99.90;;;;;;4236367;28;20539;-62
2022/06/04 04:42:35;;;;;;;16.48;8.85;;;17.90;99.90;;;;;;4239771;28;20164;-60
2022/06/04 04:44:36;;;;;;;15.50;8.07;;;17.90;99.90;;;;;;4236819;27;20056;-63
2022/06/04 04:46:38;;;;;;;13.60;9.60;;;17.90;99.90;;;;;;4240940;27;20035;-63
2022/06/04 04:48:39;;;;;;;14.25;8.85;;;17.90;99.90;;;;;;4227890;27;20452;-63
2022/06/04 04:50:46;;;;;;;13.75;9.50;;;18.00;99.90;;;;;;4226904;27;20043;-62
2022/06/04 04:52:49;;;;;;;17.95;9.73;;;18.00;99.90;;;;;;4237142;27;20072;-62
2022/06/04 04:54:50;;;;;;;14.68;9.63;;;18.00;99.90;;;;;;4229153;27;20031;-62
2022/06/04 04:56:51;;;;;;;13.38;9.23;;;18.00;99.90;;;;;;4227154;27;20044;-62
2022/06/04 04:58:52;;;;;;;18.88;9.30;;;18.20;99.90;;;;;;4225137;28;20570;-61
2022/06/04 05:00:53;;;;;;;11.30;8.98;;;18.70;99.90;;;;;;4226679;27;20468;-61
2022/06/04 05:03:00;;;;;;;19.13;8.98;;;19.20;99.90;;;;;;4235962;27;20031;-61
2022/06/04 05:05:01;;;;;;;14.68;9.02;;;19.70;99.90;;;;;;4240677;27;20022;-62
2022/06/04 05:07:02;;;;;;;14.98;8.15;;;20.20;99.90;;;;;;4237888;27;20035;-64
2022/06/04 05:09:04;;;;;;;21.85;12.20;;;20.60;99.90;;;;;;4242163;27;20043;-62
2022/06/04 05:11:13;;;;;;;23.00;11.05;;;20.80;99.90;;;;;;4237247;27;20515;-62
2022/06/04 05:13:15;;;;;;;17.52;11.15;;;21.10;99.90;;;;;;4236126;27;20080;-62
2022/06/04 05:15:16;;;;;;;20.67;10.75;;;21.40;99.90;;;;;;4234058;27;20043;-62
2022/06/04 05:17:17;;;;;;;12.82;8.10;;;21.50;99.90;;;;;;4235345;27;20087;-62
2022/06/04 05:19:18;;;;;;;15.38;9.02;;;21.60;99.90;;;;;;4230506;27;20489;-62
2022/06/04 05:21:19;;;;;;;11.82;9.30;;;21.90;99.90;;;;;;4232851;27;20498;-62
2022/06/04 05:23:21;;;;;;;16.58;9.25;;;22.20;99.90;;;;;;4234770;27;20095;-61
2022/06/04 05:25:22;;;;;;;14.05;8.82;;;22.30;99.90;;;;;;4225648;28;20080;-62
2022/06/04 05:27:23;;;;;;;12.63;8.23;;;22.40;99.90;;;;;;4224387;28;20031;-62
2022/06/04 05:29:24;;;;;;;12.85;8.75;;;22.30;99.90;;;;;;4225600;27;20047;-62
2022/06/04 05:31:26;;;;;;;13.60;10.45;;;22.20;99.90;;;;;;4224525;28;20472;-63
2022/06/04 05:33:27;;;;;;;22.90;12.00;;;21.90;99.90;;;;;;4223510;28;20087;-63
2022/06/04 05:35:28;;;;;;;19.65;13.02;;;21.90;99.90;;;;;;4227435;27;20475;-63
2022/06/04 05:37:29;;;;;;;24.85;14.00;;;21.80;99.90;;;;;;4237240;27;20093;-63
2022/06/04 05:39:34;;;;;;;16.25;11.45;;;22.10;99.90;;;;;;4226068;27;20088;-63
2022/06/04 05:41:36;;;;;;;16.17;12.18;;;22.60;99.90;;;;;;4224954;27;20497;-63
2022/06/04 05:43:39;;;;;;;13.13;9.75;;;23.10;99.90;;;;;;4236780;27;20031;-63
2022/06/04 05:45:40;;;;;;;12.00;9.60;;;23.20;99.90;;;;;;4224908;27;20031;-63
2022/06/04 05:47:41;;;;;;;16.10;8.68;;;23.20;99.90;;;;;;4227141;27;20097;-62
2022/06/04 05:49:42;;;;;;;12.02;7.88;;;23.50;99.90;;;;;;4222523;28;20040;-62
2022/06/04 05:51:45;;;;;;;10.93;7.03;;;23.60;99.90;;;;;;4237593;27;20142;-62
2022/06/04 05:53:48;;;;;;;11.43;7.03;;;;;;;;;;4230037;27;20039;-61
2022/06/04 05:55:49;;;;;;;7.95;6.35;;;;;;;;;;4238231;27;20036;-62
2022/06/04 05:57:51;;;;;;;12.57;5.70;;;;;;;;;;4225861;27;20035;-62
2022/06/04 05:59:52;;;;;;;10.38;5.63;;;;;;;;;;4241844;27;20039;-61
2022/06/04 06:01:54;;;;;;;12.48;5.95;;;;;;;;;;4240329;27;20582;-62
2022/06/04 06:03:56;;;;;;;12.27;6.25;;;;;;;;;;4222678;27;20036;-62
2022/06/04 06:05:58;;;;;;;9.75;6.40;;;;;;;;;;4224272;28;20031;-62
2022/06/04 06:07:59;;;;;;;9.27;5.70;;;;;;;;;;4235147;27;20023;-62
2022/06/04 06:10:01;;;;;;;9.90;6.47;;;;;;;;;;4223891;27;20073;-62
2022/06/04 06:12:03;;;;;;;11.55;6.38;;;;;;;;;;4229104;27;20027;-62
2022/06/04 06:14:07;;;;;;;12.45;7.25;;;;;;;;;;4225467;27;20036;-61
2022/06/04 06:16:13;;;;;;;12.05;6.90;;;;;;;;;;4230285;27;20474;-61
2022/06/04 06:18:14;;;;;;;11.70;7.18;;;;;;;;;;4224616;27;20047;-62
2022/06/04 06:20:17;;;;;;;12.15;7.63;;;;;;;;;;4238866;27;20051;-63
2022/06/04 06:22:18;;;;;;;10.90;6.85;;;;;;;;;;4240512;27;20031;-64
2022/06/04 06:24:21;;;;;;;9.57;7.30;;;;;;;;;;4223903;27;20495;-62
2022/06/04 06:26:23;;;;;;;10.48;6.38;;;;;;;;;;4233193;27;20096;-63
2022/06/04 06:28:25;;;;;;;10.30;6.00;;;;;;;;;;4223635;27;20488;-60
2022/06/04 06:30:27;;;;;;;13.68;6.85;;;23.90;99.90;;;;;;4224539;27;20084;-63
2022/06/04 06:32:28;;;;;;;12.63;6.68;;;22.30;99.90;;;;;;4240353;27;20027;-66
2022/06/04 06:34:29;;;;;;;9.40;6.20;;;22.10;99.90;;;;;;4240233;27;20115;-63
2022/06/04 06:36:30;;;;;;;18.23;7.70;;;22.40;99.90;;;;;;4240286;27;20076;-64
2022/06/04 06:38:32;;;;;;;10.77;7.25;;;22.60;99.90;;;;;;4240487;27;20068;-63
2022/06/04 06:40:35;;;;;;;12.07;7.25;;;22.50;99.90;;;;;;4238554;27;20027;-66
2022/06/04 06:42:36;;;;;;;8.80;7.13;;;22.40;99.90;;;;;;4225326;27;20024;-65
2022/06/04 06:44:38;;;;;;;12.63;7.13;;;22.40;99.90;;;;;;4233271;27;20079;-62
2022/06/04 06:46:45;;;;;;;13.63;6.65;;;22.50;99.90;;;;;;4236088;27;20039;-62
2022/06/04 06:48:48;;;;;;;10.27;7.65;;;22.70;99.90;;;;;;4234597;27;20039;-61
2022/06/04 06:50:49;;;;;;;14.07;7.78;;;22.60;99.90;;;;;;4223011;28;20093;-61
2022/06/04 06:52:51;;;;;;;9.88;8.05;;;22.60;99.90;;;;;;4225469;27;20483;-61
2022/06/04 06:54:52;;;;;;;11.88;6.95;;;23.10;99.90;;;;;;4222278;28;20048;-60
2022/06/04 06:56:53;;;;;;;11.52;7.95;;;23.50;99.90;;;;;;4224987;27;20055;-61
2022/06/04 06:58:56;;;;;;;14.45;7.25;;;23.90;99.90;;;;;;4228615;27;20039;-66
2022/06/04 07:00:57;;;;;;;9.75;6.90;;;24.10;99.90;;;;;;4240666;27;20095;-62
2022/06/04 07:02:58;;;;;;;10.77;6.78;;;24.20;99.90;;;;;;4239356;27;20096;-62
2022/06/04 07:05:00;;;;;;;12.32;7.50;;;24.20;99.90;;;;;;4240801;27;20562;-66
2022/06/04 07:07:02;;;;;;;9.98;6.47;;;24.00;99.90;;;;;;4239734;27;20423;-63
2022/06/04 07:09:07;;;;;;;7.40;5.57;;;24.20;99.90;;;;;;4239101;27;20088;-61
2022/06/04 07:11:09;;;;;;;7.28;5.82;;;24.10;99.90;;;;;;4239066;27;20490;-64
2022/06/04 07:13:10;;;;;;;7.20;6.05;;;24.10;99.90;;;;;;4223510;28;20095;-62
2022/06/04 07:15:11;;;;;;;8.65;5.65;;;24.00;99.90;;;;;;4223216;28;20031;-62
2022/06/04 07:17:12;;;;;;;23.30;6.60;;;24.00;99.90;;;;;;4226715;27;20032;-63
2022/06/04 07:19:16;;;;;;;7.20;5.47;;;24.10;99.90;;;;;;4228695;27;20075;-63
2022/06/04 07:21:19;;;;;;;18.10;6.90;;;24.20;99.90;;;;;;4239633;27;20097;-61
2022/06/04 07:23:20;;;;;;;9.10;5.80;;;24.10;99.90;;;;;;4235980;27;20043;-60
2022/06/04 07:25:21;;;;;;;10.15;6.75;;;24.00;99.90;;;;;;4222492;28;20503;-61
2022/06/04 07:27:22;;;;;;;9.85;5.72;;;23.80;99.90;;;;;;4224345;28;20040;-63
2022/06/04 07:29:24;;;;;;;6.70;5.97;;;23.80;99.90;;;;;;4227206;27;20088;-63
2022/06/04 07:31:25;;;;;;;8.13;5.28;;;23.90;99.90;;;;;;4234018;27;20104;-66
2022/06/04 07:33:27;;;;;;;10.65;6.00;;;24.00;99.90;;;;;;4226170;28;20051;-66
2022/06/04 07:35:28;;;;;;;8.18;6.05;;;24.10;99.90;;;;;;4240561;28;20031;-62
2022/06/04 07:37:30;;;;;;;11.20;6.65;;;24.10;99.90;;;;;;4236996;27;20119;-63
2022/06/04 07:39:31;;;;;;;13.32;6.53;;;24.00;99.90;;;;;;4230909;27;20066;-63
2022/06/04 07:41:35;;;;;;;8.35;6.43;;;23.70;99.90;;;;;;4223852;28;20032;-62
2022/06/04 07:43:36;;;;;;;6.88;5.70;;;23.60;99.90;;;;;;4226015;28;20027;-62
2022/06/04 07:45:38;;;;;;;10.68;7.13;;;23.60;99.90;;;;;;4236135;27;20104;-60
2022/06/04 07:47:41;;;;;;;7.85;6.03;;;23.60;99.90;;;;;;4226936;27;20039;-60
2022/06/04 07:49:42;;;;;;;8.43;6.35;;;23.80;99.90;;;;;;4237932;27;20043;-61
2022/06/04 07:51:44;;;;;;;9.38;6.10;;;23.70;99.90;;;;;;4222275;28;20043;-60
2022/06/04 07:53:45;;;;;;;8.57;6.50;;;23.60;99.90;;;;;;4224435;28;20594;-60
2022/06/04 07:55:46;;;;;;;9.50;6.15;;;23.60;99.90;;;;;;4222081;28;20548;-60
2022/06/04 07:57:48;;;;;;;8.13;5.53;;;23.50;99.90;;;;;;4224692;28;20128;-61
2022/06/04 07:59:49;;;;;;;10.75;6.75;;;23.60;99.90;;;;;;4234450;28;20031;-63
2022/06/04 08:01:50;;;;;;;12.68;7.00;;;23.60;99.90;;;;;;4239909;28;20100;-62
2022/06/04 08:03:53;;;;;;;7.97;6.28;;;23.50;99.90;;;;;;4236617;28;20474;-61
2022/06/04 08:05:55;;;;;;;8.55;6.47;;;23.50;99.90;;;;;;4238994;28;20437;-61
2022/06/04 08:07:56;;;;;;;8.60;5.63;;;23.50;99.90;;;;;;4237229;27;20100;-61
2022/06/04 08:09:58;;;;;;;9.55;6.22;;;23.50;99.90;;;;;;4239713;28;20088;-60
2022/06/04 08:12:00;;;;;;;7.05;5.75;;;23.50;99.90;;;;;;4236974;28;20047;-59
2022/06/04 08:14:19;;;;;;;7.07;5.68;;;23.70;99.90;;;;;;4239559;27;20031;-60
2022/06/04 08:16:20;;;;;;;15.10;5.75;;;23.80;99.90;;;;;;4208406;28;20044;-59
2022/06/04 08:18:21;;;;;;;17.55;6.43;;;23.80;99.90;;;;;;4227507;28;20111;-59
2022/06/04 08:20:22;;;;;;;7.03;6.20;;;23.80;99.90;;;;;;4225212;28;20433;-60
2022/06/04 08:22:24;;;;;;;8.35;5.82;;;23.80;99.90;;;;;;4240110;27;20792;-59
2022/06/04 08:24:25;;;;;;;8.50;6.30;;;23.60;99.90;;;;;;4240421;27;20115;-57
2022/06/04 08:26:27;;;;;;;11.32;6.18;;;23.40;99.90;;;;;;4229020;27;20027;-60
2022/06/04 08:28:28;;;;;;;9.77;6.22;;;23.30;99.90;;;;;;4234493;27;20112;-61
2022/06/04 08:30:29;;;;;;;8.50;5.80;;;23.30;99.90;;;;;;4241878;27;20557;-60
2022/06/04 08:32:32;;;;;;;11.35;7.75;;;23.20;99.90;;;;;;4242893;27;20039;-60
2022/06/04 08:34:33;;;;;;;9.85;6.82;;;23.20;99.90;;;;;;4236183;27;20023;-60
2022/06/04 08:36:35;;;;;;;14.23;6.80;;;23.20;99.90;;;;;;4235274;27;20037;-61
2022/06/04 08:38:37;;;;;;;10.18;6.50;;;23.20;99.90;;;;;;4224762;28;20088;-61
2022/06/04 08:40:45;;;;;;;11.55;6.18;;;23.20;99.90;;;;;;4227476;27;20861;-62
2022/06/04 08:43:15;;;;;;;7.03;5.95;;;23.10;99.90;;;;;;4228046;27;20096;-60
2022/06/04 08:45:16;;;;;;;16.35;7.20;;;23.10;99.90;;;;;;4201044;27;20646;-60
2022/06/04 08:47:36;;;;;;;12.55;8.02;;;23.00;99.90;;;;;;4241502;27;20043;-61
2022/06/04 08:49:47;;;;;;;10.07;6.32;;;23.00;99.90;;;;;;4211917;27;20040;-60
2022/06/04 08:51:48;;;;;;;10.70;8.15;;;22.90;99.90;;;;;;4228938;27;20043;-60
2022/06/04 08:53:53;;;;;;;7.28;6.18;;;22.90;99.90;;;;;;4226334;27;20092;-59
2022/06/04 08:58:47;;;;;;;7.70;6.32;;;22.80;99.90;;;;;;4218978;28;20372;-60
2022/06/04 09:01:14;;;;;;;9.73;7.05;;;22.80;99.90;;;;;;4224465;28;20385;-59
2022/06/04 09:03:17;;;;;;;12.85;7.90;;;22.70;99.90;;;;;;4233585;27;20478;-61
2022/06/04 09:05:53;;;;;;;8.55;6.15;;;22.80;99.90;;;;;;4241539;27;20040;-60
2022/06/04 09:08:01;;;;;;;12.27;7.93;;;22.80;99.90;;;;;;4241369;27;20080;-61
2022/06/04 09:10:07;;;;;;;9.82;6.65;;;22.80;99.90;;;;;;4240248;27;20104;-60
2022/06/04 09:12:26;;;;;;;10.95;8.13;;;22.70;99.90;;;;;;4237619;27;20799;-60
2022/06/04 09:14:38;;;;;;;10.50;8.23;;;22.70;99.90;;;;;;4224821;28;20101;-59
2022/06/04 09:16:41;;;;;;;11.43;8.65;;;22.60;99.90;;;;;;4224169;28;20120;-59
2022/06/04 09:18:44;;;;;;;13.55;8.93;;;22.60;99.90;;;;;;4224684;28;20043;-59
2022/06/04 09:20:47;;;;;;;9.95;7.97;;;22.60;99.90;;;;;;4225018;28;20104;-58
2022/06/04 09:22:52;;;;;;;11.38;7.72;;;22.70;99.90;;;;;;4225250;28;20032;-61
2022/06/04 09:24:53;;;;;;;13.88;8.27;;;22.60;99.90;;;;;;4223534;28;20040;-60
2022/06/04 09:27:09;;;;;;;11.07;8.18;;;22.70;99.90;;;;;;4227789;27;20843;-59
2022/06/04 09:29:55;;;;;;;9.43;8.25;;;22.70;99.90;;;;;;4241916;27;20035;-60
2022/06/04 09:32:05;;;;;;;11.15;8.90;;;22.70;99.90;;;;;;4241380;27;20462;-59
2022/06/04 09:34:15;;;;;;;12.45;9.68;;;22.80;99.90;;;;;;4240926;27;20347;-58
2022/06/04 09:36:18;;;;;;;12.85;9.27;;;22.90;99.90;;;;;;4233137;27;20040;-59
2022/06/04 09:38:26;;;;;;;12.50;9.05;;;23.00;99.90;;;;;;4224862;27;20043;-60
2022/06/04 09:40:30;;;;;;;13.38;9.80;;;23.00;99.90;;;;;;4240903;27;20095;-60
2022/06/04 09:42:32;;;;;;;11.18;9.98;;;23.10;99.90;;;;;;4241239;27;20031;-59
2022/06/04 09:44:47;;;;;;;11.00;9.75;;;23.20;99.90;;;;;;4241214;27;20080;-57
2022/06/04 09:46:53;;;;;;;13.43;10.75;;;23.30;99.90;;;;;;4241421;27;20039;-59
2022/06/04 09:48:55;;;;;;;12.88;9.18;;;23.40;99.90;;;;;;4225553;27;20284;-59
2022/06/04 09:51:00;;;;;;;12.40;8.82;;;23.60;99.90;;;;;;4224524;28;20092;-60
2022/06/04 09:53:24;;;;;;;12.48;9.02;;;23.60;99.90;;;;;;4224316;28;20380;-59
2022/06/04 09:55:26;;;;;;;15.88;9.10;;;23.60;99.90;;;;;;4224107;28;20032;-59
2022/06/04 09:57:35;;;;;;;16.10;11.60;;;23.60;99.90;;;;;;4224372;28;20552;-59
2022/06/04 09:59:38;;;;;;;19.30;16.00;;;23.70;99.90;;;;;;4224172;28;20076;-59
2022/06/04 10:01:39;;;;;;;13.60;9.10;;;23.90;99.90;;;;;;4223086;27;20432;-60
2022/06/04 10:03:41;;;;;;;17.10;8.70;;;24.00;99.90;;;;;;4223847;28;20032;-60
2022/06/04 10:06:11;;;;;;;11.52;8.90;;;24.00;99.90;;;;;;4224803;27;20043;-61
2022/06/04 10:08:13;;;;;;;11.60;7.97;;;24.00;99.90;;;;;;4224317;28;20466;-62
2022/06/04 10:10:22;;;;;;;10.50;7.22;;;23.90;99.90;;;;;;4223629;28;20036;-63
2022/06/04 10:15:00;;;;;;;10.57;6.82;;;23.90;99.90;;;;;;4224837;28;20040;-62
2022/06/04 10:17:04;;;;;;;10.43;7.65;;;23.90;99.90;;;;;;4223519;28;20031;-61
2022/06/04 10:19:20;;;;;;;14.40;7.88;;;23.90;99.90;;;;;;4224008;28;20027;-62
2022/06/04 10:21:35;;;;;;;10.52;8.43;;;23.90;99.90;;;;;;4232899;27;20069;-61
2022/06/04 10:23:45;;;;;;;10.50;7.80;;;24.00;99.90;;;;;;4240790;27;20104;-62
2022/06/04 10:26:08;;;;;;;12.95;9.43;;;24.20;99.90;;;;;;4240326;27;20027;-63
2022/06/04 10:28:25;;;;;;;11.02;7.35;;;24.20;99.90;;;;;;4241839;27;20027;-62
2022/06/04 10:30:33;;;;;;;10.52;8.13;;;24.40;99.90;;;;;;4239787;27;20115;-62
2022/06/04 10:33:01;;;;;;;10.00;6.93;;;24.50;99.90;;;;;;4241349;27;20091;-65
2022/06/04 10:35:38;;;;;;;7.97;7.18;;;24.60;99.90;;;;;;4240091;27;20092;-66
2022/06/04 10:38:03;;;;;;;10.95;7.43;;;24.80;99.90;;;;;;4239092;27;20027;-66
2022/06/04 10:40:26;;;;;;;10.35;7.00;;;24.80;99.90;;;;;;4239987;27;20035;-65
2022/06/04 10:42:30;;;;;;;8.82;6.22;;;24.90;99.90;;;;;;4238959;27;20039;-65
2022/06/04 10:44:49;;;;;;;6.15;5.55;;;24.80;99.90;;;;;;4238688;27;20031;-65
2022/06/04 10:47:26;;;;;;;9.23;6.90;;;24.80;99.90;;;;;;4240754;27;20019;-63
2022/06/04 10:49:46;;;;;;;10.73;6.30;;;24.80;99.90;;;;;;4225404;27;20099;-65
2022/06/04 10:52:18;;;;;;;10.65;6.47;;;24.80;99.90;;;;;;4239910;27;20031;-68
2022/06/04 10:54:43;;;;;;;9.70;6.50;;;24.90;99.90;;;;;;4242111;27;20031;-64
2022/06/04 10:57:05;;;;;;;7.10;5.45;;;25.00;99.90;;;;;;4238999;27;20035;-66
2022/06/04 10:59:22;;;;;;;8.00;6.00;;;25.10;99.90;;;;;;4231541;27;20474;-63
2022/06/04 11:01:49;;;;;;;9.18;6.28;;;;;;;;;;4224761;27;20069;-63
2022/06/04 11:03:56;;;;;;;9.70;5.38;;;;;;;;;;4205337;28;20044;-64
2022/06/04 11:06:01;;;;;;;9.00;5.65;;;;;;;;;;4208827;28;20031;-65
2022/06/04 11:08:18;;;;;;;5.85;5.35;;;;;;;;;;4222754;28;20048;-67
2022/06/04 11:10:22;;;;;;;8.55;6.07;;;;;;;;;;4220900;28;20040;-69
2022/06/04 11:12:33;;;;;;;7.78;6.57;;;;;;;;;;4222823;28;20051;-68